ZYTX/SHE METAR and TAF weather

Enter ICAO airport designator
Station Type Date Time Source
ZYTX METAR 2021/05/14 23:30 UTC NOAA

ZYTX 142330Z 26002MPS 230V290 1400 R24/2000D -RA BR SCT005 OVC030 17/16 Q1009 NOSIG


Station Type Date Time Source
ZYTX Decoded METAR 2021/05/14 23:30 UTC NOAA

Shenyang / Taokian, China (ZYTX) 41-48N 123-24E
May 14, 2021 - 07:30 PM EDT / 2021.05.14 2330 UTC
Wind: from the W (260 degrees) at 4 MPH (4 KT) (direction variable):0
Visibility: less than 1 mile:0
Sky conditions: overcast
Weather: light rain; mist
Temperature: 62 F (17 C)
Dew Point: 60 F (16 C)
Relative Humidity: 93%
Pressure (altimeter): 29.80 in. Hg (1009 hPa)
ob: ZYTX 142330Z 26002MPS 230V290 1400 R24/2000D -RA BR SCT005 OVC030 17/16 Q1009 NOSIG
cycle: 23

Station Type Date Time Source
ZYTX TAF 2021/05/14 18:36 UTC NOAA

TAF
AMD TAF
AMD ZYTX 142334Z 1418/1518 20004MPS 6000 BKN033 TX22/1506Z TN15/1421Z
TEMPO 1422/1502 1200 -RA BR BKN004 SCT030
BECMG 1501/1502 33005MPS

Example: see airport list